Fillmore, Missouri
Current Conditions -  °F | °C
As of 2:53 PM on Friday 21 Nov 2014 (Local Time) from KSTJ Reporting Station
Light Rain Light Rain  
Wind Chill: 31°   Ceiling: 1700
Heat Index: 38°   Visibility: 9mi
Dew Point: 31°   Wind: 9mph
Humidity: 76%   Direction: 150°SSE
Pressure: 30.13"   Gusts: NA
Location:  40.03°N, 94.97°W
Report Text: KSTJ 212053Z 15008KT 9SM -RA OVC017 03/M01 A3013 RMK AO2 RAB12 SLP210 P0000 60000 T00331006 56024
Loading
Personal Weather Stations






























Interactive Weather Map New forecast layout! Learn more

10-Day Weather Forecast

Advertisements
Track Severe Weather on mobile